Time;durP1;ratioP1;P1;durP2;ratioP2;P2;SDS_P1;SDS_P2;PMS_P1;PMS_P2;Temp;Humidity;BMP_temperature;BMP_pressure;BME280_temperature;BME280_humidity;BME280_pressure;Samples;Min_cycle;Max_cycle;Signal;HPM_P1;HPM_P2
2023/12/21 00:01:09;;;;;;;19.60;8.23;;;;;;;3.28;100.00;94077.25;5098360;28;20077;-81
2023/12/21 00:03:35;;;;;;;17.15;8.27;;;;;;;3.22;100.00;94073.75;5098319;28;20424;-83
2023/12/21 00:06:00;;;;;;;19.23;7.70;;;;;;;3.23;100.00;94064.22;5098564;28;20051;-83
2023/12/21 00:08:26;;;;;;;14.05;7.15;;;;;;;3.28;100.00;94068.69;5098981;28;20425;-84
2023/12/21 00:10:51;;;;;;;13.32;6.65;;;;;;;3.35;100.00;94077.13;5081551;28;20031;-83
2023/12/21 00:13:17;;;;;;;10.50;5.28;;;;;;;3.52;100.00;94077.97;5098065;28;20073;-83
2023/12/21 00:15:43;;;;;;;7.70;4.05;;;;;;;3.58;100.00;94085.84;5099268;28;20032;-84
2023/12/21 00:18:08;;;;;;;8.45;4.88;;;;;;;3.65;100.00;94091.69;5097532;28;20024;-84
2023/12/21 00:20:33;;;;;;;12.02;5.60;;;;;;;3.76;100.00;94096.03;5098021;28;20356;-83
2023/12/21 00:22:59;;;;;;;13.50;5.80;;;;;;;3.77;100.00;94086.47;5099144;28;20460;-84
2023/12/21 00:25:24;;;;;;;12.95;6.03;;;;;;;3.76;100.00;94082.28;5099051;28;20055;-84
2023/12/21 00:27:50;;;;;;;10.30;5.88;;;;;;;3.75;100.00;94078.94;5097346;28;20048;-83
2023/12/21 00:30:15;;;;;;;13.63;7.00;;;;;;;3.69;100.00;94072.06;5098007;28;20054;-84
2023/12/21 00:32:41;;;;;;;13.63;6.90;;;;;;;3.50;100.00;94074.03;5089466;28;20036;-84
2023/12/21 00:35:07;;;;;;;15.50;9.00;;;;;;;3.40;100.00;94077.22;5097995;28;20034;-83
2023/12/21 00:37:36;;;;;;;16.60;7.63;;;;;;;3.53;100.00;94078.78;5078414;28;20121;-83
2023/12/21 00:40:05;;;;;;;13.50;6.70;;;;;;;3.65;100.00;94079.50;5078614;28;20063;-83
2023/12/21 00:42:32;;;;;;;16.27;7.30;;;;;;;3.62;100.00;94077.38;5082986;28;20360;-83
2023/12/21 00:44:58;;;;;;;15.38;7.65;;;;;;;3.56;100.00;94082.69;5079522;28;20094;-83
2023/12/21 00:47:23;;;;;;;16.23;8.93;;;;;;;3.60;100.00;94073.47;5076690;28;20033;-83
2023/12/21 00:49:49;;;;;;;14.90;8.25;;;;;;;3.48;100.00;94076.06;5077177;28;20346;-83
2023/12/21 00:52:14;;;;;;;17.10;8.75;;;;;;;3.50;100.00;94076.63;5077101;28;20036;-81
2023/12/21 00:54:40;;;;;;;18.63;8.32;;;;;;;3.51;100.00;94079.00;5088905;28;20036;-81
2023/12/21 00:57:05;;;;;;;17.88;8.15;;;;;;;3.46;100.00;94084.09;5097749;28;20085;-81
2023/12/21 00:59:31;;;;;;;12.45;7.50;;;;;;;3.29;100.00;94070.25;5097236;28;20036;-81
2023/12/21 01:01:56;;;;;;;14.13;7.38;;;;;;;3.31;100.00;94076.78;5098353;28;20059;-81
2023/12/21 01:04:21;;;;;;;15.73;7.15;;;;;;;3.09;100.00;94077.41;5084294;28;20037;-83
2023/12/21 01:06:47;;;;;;;15.73;7.57;;;;;;;2.62;100.00;94073.00;5077512;28;20025;-84
2023/12/21 01:09:13;;;;;;;13.43;6.97;;;;;;;2.52;100.00;94075.34;5077975;28;20025;-81
2023/12/21 01:11:38;;;;;;;12.30;6.68;;;;;;;2.26;100.00;94072.97;5059902;28;20071;-81
2023/12/21 01:14:04;;;;;;;12.57;7.50;;;;;;;2.11;100.00;94063.03;5083433;28;20024;-81
2023/12/21 01:16:29;;;;;;;14.82;7.32;;;;;;;2.10;100.00;94064.03;5077777;28;20033;-81
2023/12/21 01:18:55;;;;;;;11.00;6.40;;;;;;;2.02;100.00;94061.78;5077156;28;20039;-83
2023/12/21 01:21:20;;;;;;;13.38;7.25;;;;;;;2.04;100.00;94062.34;5076552;28;20032;-83
2023/12/21 01:23:46;;;;;;;10.63;6.05;;;;;;;2.26;100.00;94074.75;5078158;28;20055;-83
2023/12/21 01:26:11;;;;;;;15.52;5.88;;;;;;;2.43;100.00;94085.25;5085635;28;20039;-81
2023/12/21 01:28:36;;;;;;;11.15;5.25;;;;;;;2.62;100.00;94090.31;5085322;28;20464;-81
2023/12/21 01:31:02;;;;;;;10.63;5.65;;;;;;;2.64;100.00;94078.75;5084553;28;20028;-81
2023/12/21 01:33:27;;;;;;;11.23;5.53;;;;;;;2.60;100.00;94071.66;5085194;28;20032;-81
2023/12/21 01:35:53;;;;;;;13.18;6.00;;;;;;;2.57;100.00;94067.72;5085810;28;20158;-81
2023/12/21 01:38:18;;;;;;;12.13;6.50;;;;;;;2.33;100.00;94072.06;5078963;28;20044;-81
2023/12/21 01:40:44;;;;;;;17.60;7.80;;;;;;;2.34;100.00;94076.22;5075990;28;20036;-81
2023/12/21 01:43:09;;;;;;;13.73;6.07;;;;;;;2.44;100.00;94081.66;5060601;28;20460;-81
2023/12/21 01:45:35;;;;;;;10.88;6.07;;;;;;;2.62;100.00;94085.94;5076036;28;20040;-81
2023/12/21 01:48:01;;;;;;;9.95;5.88;;;;;;;2.78;100.00;94096.63;5075494;28;20032;-81
2023/12/21 01:50:27;;;;;;;14.75;7.90;;;;;;;2.94;100.00;94093.38;5076040;28;20028;-84
2023/12/21 01:52:55;;;;;;;16.67;8.18;;;;;;;3.04;100.00;94090.22;5059501;28;20136;-84
2023/12/21 01:55:21;;;;;;;13.10;7.80;;;;;;;3.06;100.00;94102.94;5086716;28;20433;-84
2023/12/21 01:57:47;;;;;;;15.55;8.23;;;;;;;3.00;100.00;94106.41;5095633;28;20345;-84
2023/12/21 02:00:14;;;;;;;19.02;8.77;;;;;;;2.95;100.00;94105.28;5083576;28;20037;-84
2023/12/21 02:02:39;;;;;;;16.42;9.52;;;;;;;2.94;100.00;94098.53;5096085;28;20028;-81
2023/12/21 02:05:05;;;;;;;19.23;9.27;;;;;;;3.05;100.00;94103.94;5089913;28;20078;-81
2023/12/21 02:07:30;;;;;;;17.38;9.68;;;;;;;3.07;100.00;94097.53;5074840;28;20032;-81
2023/12/21 02:09:56;;;;;;;18.77;9.52;;;;;;;3.23;100.00;94100.47;5076830;28;20117;-81
2023/12/21 02:12:21;;;;;;;17.88;9.70;;;;;;;3.25;100.00;94104.38;5075690;28;20032;-81
2023/12/21 02:14:47;;;;;;;17.02;9.82;;;;;;;3.06;100.00;94105.53;5075735;28;20464;-81
2023/12/21 02:17:15;;;;;;;18.45;9.93;;;;;;;2.92;100.00;94112.72;5094300;28;20081;-81
2023/12/21 02:19:41;;;;;;;20.23;11.02;;;;;;;2.84;100.00;94111.25;5095771;28;20036;-81
2023/12/21 02:22:07;;;;;;;21.50;10.82;;;;;;;2.85;100.00;94104.28;5095806;28;20353;-81
2023/12/21 02:24:33;;;;;;;17.40;10.20;;;;;;;2.76;100.00;94107.19;5078334;28;20036;-81
2023/12/21 02:26:59;;;;;;;21.42;10.73;;;;;;;2.85;100.00;94110.25;5074863;28;20038;-81
2023/12/21 02:29:25;;;;;;;20.05;10.20;;;;;;;2.83;100.00;94112.25;5075457;28;20051;-83
2023/12/21 02:31:51;;;;;;;16.38;9.82;;;;;;;3.05;100.00;94114.31;5075318;28;20032;-83
2023/12/21 02:34:16;;;;;;;17.35;9.93;;;;;;;3.19;100.00;94115.66;5083151;28;20038;-83
2023/12/21 02:36:42;;;;;;;20.48;10.07;;;;;;;3.14;100.00;94109.56;5076018;28;20090;-84
2023/12/21 02:39:07;;;;;;;18.02;9.68;;;;;;;3.04;100.00;94110.16;5075225;28;20043;-83
2023/12/21 02:41:33;;;;;;;19.48;10.43;;;;;;;2.75;100.00;94110.03;5075394;28;20035;-83
2023/12/21 02:43:58;;;;;;;23.90;11.70;;;;;;;2.59;100.00;94090.78;5075460;28;20353;-84
2023/12/21 02:46:25;;;;;;;18.50;10.73;;;;;;;2.58;100.00;94081.44;5071925;28;20400;-84
2023/12/21 02:48:51;;;;;;;23.05;12.07;;;;;;;2.62;100.00;94085.94;5074893;28;20028;-83
2023/12/21 02:51:17;;;;;;;19.27;11.30;;;;;;;2.57;100.00;94074.69;5075205;28;20028;-83
2023/12/21 02:53:42;;;;;;;16.67;9.82;;;;;;;2.08;100.00;94068.66;5058744;28;20345;-83
2023/12/21 02:56:08;;;;;;;21.30;10.32;;;;;;;1.76;100.00;94062.94;5082869;28;20035;-83
2023/12/21 02:58:34;;;;;;;20.40;11.25;;;;;;;1.69;100.00;94060.44;5058136;28;20028;-83
2023/12/21 03:01:01;;;;;;;24.80;12.40;;;;;;;1.49;100.00;94058.09;5076498;28;20032;-83
2023/12/21 03:03:27;;;;;;;20.58;11.00;;;;;;;1.39;100.00;94058.63;5088319;28;20421;-83
2023/12/21 03:05:52;;;;;;;20.38;9.63;;;;;;;1.39;100.00;94056.03;5096506;28;20038;-83
2023/12/21 03:08:18;;;;;;;17.67;9.63;;;;;;;1.79;100.00;94058.13;5078178;28;20429;-83
2023/12/21 03:10:43;;;;;;;21.33;9.85;;;;;;;1.90;100.00;94045.47;5095306;28;20096;-83
2023/12/21 03:13:09;;;;;;;17.42;8.85;;;;;;;1.90;100.00;94045.47;5080063;28;20037;-83
2023/12/21 03:15:34;;;;;;;16.30;9.27;;;;;;;1.64;100.00;94048.16;5058500;28;20029;-83
2023/12/21 03:17:59;;;;;;;19.00;9.68;;;;;;;1.55;100.00;94047.69;5075694;28;20413;-83
2023/12/21 03:20:25;;;;;;;16.10;9.65;;;;;;;1.37;100.00;94045.13;5077651;28;20040;-83
2023/12/21 03:22:50;;;;;;;21.27;9.65;;;;;;;1.41;100.00;94051.44;5062798;28;20433;-83
2023/12/21 03:25:16;;;;;;;17.02;9.32;;;;;;;1.53;100.00;94059.25;5100268;28;20093;-84
2023/12/21 03:27:41;;;;;;;16.10;9.00;;;;;;;1.67;100.00;94058.09;5085715;28;20036;-84
2023/12/21 03:30:07;;;;;;;18.00;10.30;;;;;;;1.71;100.00;94050.66;5088743;28;20027;-84
2023/12/21 03:32:33;;;;;;;19.80;11.07;;;;;;;1.87;100.00;94048.50;5088905;28;20444;-84
2023/12/21 03:34:58;;;;;;;21.08;10.52;;;;;;;1.95;100.00;94050.75;5075252;28;20069;-84
2023/12/21 03:37:27;;;;;;;20.08;11.10;;;;;;;1.69;100.00;94052.69;5098255;28;20387;-82
2023/12/21 03:39:56;;;;;;;20.17;11.02;;;;;;;1.45;100.00;94046.63;5098775;28;20325;-82
2023/12/21 03:42:22;;;;;;;25.98;12.40;;;;;;;1.45;100.00;94056.97;5098813;28;20028;-84
2023/12/21 03:44:47;;;;;;;25.48;12.13;;;;;;;1.47;100.00;94054.94;5082368;28;20082;-81
2023/12/21 03:47:13;;;;;;;22.48;11.93;;;;;;;1.59;100.00;94053.22;5098061;28;20028;-82
2023/12/21 03:49:39;;;;;;;26.98;12.80;;;;;;;1.62;100.00;94049.41;5098666;28;20024;-82
2023/12/21 03:52:05;;;;;;;21.10;12.00;;;;;;;1.71;100.00;94052.47;5081843;28;20084;-84
2023/12/21 03:54:31;;;;;;;22.83;12.27;;;;;;;1.90;100.00;94066.13;5090376;28;20031;-84
2023/12/21 03:56:56;;;;;;;22.42;11.55;;;;;;;1.98;100.00;94053.69;5097860;28;20421;-84
2023/12/21 03:59:22;;;;;;;18.48;10.18;;;;;;;1.87;100.00;94058.81;5081750;28;20039;-84
2023/12/21 04:01:47;;;;;;;21.73;11.73;;;;;;;1.88;100.00;94063.00;5098396;28;20028;-81
2023/12/21 04:04:12;;;;;;;18.13;9.90;;;;;;;2.08;100.00;94057.50;5092381;28;20064;-84
2023/12/21 04:06:38;;;;;;;24.88;11.38;;;;;;;2.07;100.00;94059.31;5095648;28;20119;-84
2023/12/21 04:09:03;;;;;;;19.05;10.35;;;;;;;2.03;100.00;94057.41;5081104;28;20020;-84
2023/12/21 04:11:29;;;;;;;16.30;8.10;;;;;;;2.16;100.00;94056.44;5099396;28;20420;-84
2023/12/21 04:13:54;;;;;;;15.85;9.00;;;;;;;1.94;100.00;94054.34;5097860;28;20032;-84
2023/12/21 04:16:20;;;;;;;15.43;8.63;;;;;;;1.69;100.00;94063.00;5089643;28;20031;-82
2023/12/21 04:18:45;;;;;;;19.48;8.98;;;;;;;1.73;100.00;94060.78;5097471;28;20077;-84
2023/12/21 04:21:11;;;;;;;16.58;8.15;;;;;;;1.89;100.00;94062.75;5097776;28;20334;-84
2023/12/21 04:23:36;;;;;;;15.57;8.35;;;;;;;1.93;100.00;94076.03;5097981;28;20028;-84
2023/12/21 04:26:02;;;;;;;15.52;7.97;;;;;;;1.96;100.00;94075.56;5097283;28;20043;-84
2023/12/21 04:28:27;;;;;;;13.38;7.78;;;;;;;1.98;100.00;94069.19;5098643;28;20024;-84
2023/12/21 04:30:52;;;;;;;13.57;7.63;;;;;;;2.09;100.00;94077.97;5098636;28;20032;-81
2023/12/21 04:33:18;;;;;;;19.60;10.50;;;;;;;1.82;100.00;94088.66;5097750;28;20044;-84
2023/12/21 04:35:44;;;;;;;19.08;10.38;;;;;;;1.79;100.00;94076.19;5096962;28;20024;-84
2023/12/21 04:38:10;;;;;;;17.63;10.02;;;;;;;1.96;100.00;94066.03;5077548;28;20173;-83
2023/12/21 04:40:35;;;;;;;16.58;8.52;;;;;;;1.95;100.00;94069.63;5077470;28;20063;-83
2023/12/21 04:43:01;;;;;;;17.17;8.88;;;;;;;2.06;100.00;94078.44;5077383;28;20020;-83
2023/12/21 04:45:26;;;;;;;19.48;9.32;;;;;;;1.80;100.00;94080.34;5078195;28;20028;-84
2023/12/21 04:47:52;;;;;;;20.83;10.77;;;;;;;1.74;100.00;94077.84;5084756;28;20089;-84
2023/12/21 04:50:18;;;;;;;18.90;9.93;;;;;;;1.81;100.00;94074.19;5078327;28;20029;-84
2023/12/21 04:52:43;;;;;;;18.15;8.98;;;;;;;1.93;100.00;94068.28;5060778;28;20024;-83
2023/12/21 04:55:09;;;;;;;17.23;8.88;;;;;;;1.93;100.00;94066.47;5078220;28;20025;-84
2023/12/21 04:57:35;;;;;;;19.55;9.05;;;;;;;1.73;100.00;94059.00;5084223;28;20032;-83
2023/12/21 05:00:00;;;;;;;22.02;10.48;;;;;;;1.62;100.00;94059.75;5080578;28;20097;-83
2023/12/21 05:02:26;;;;;;;20.98;10.88;;;;;;;1.63;100.00;94064.66;5097189;28;20081;-84
2023/12/21 05:04:51;;;;;;;18.40;10.45;;;;;;;1.60;100.00;94067.69;5097112;28;20437;-84
2023/12/21 05:07:18;;;;;;;19.10;9.57;;;;;;;1.71;100.00;94065.38;5095808;28;20024;-83
2023/12/21 05:09:43;;;;;;;19.08;10.05;;;;;;;1.88;100.00;94065.56;5090955;28;20448;-85
2023/12/21 05:12:09;;;;;;;15.57;9.35;;;;;;;1.95;100.00;94059.31;5080649;28;20070;-85
2023/12/21 05:14:34;;;;;;;19.45;10.23;;;;;;;1.53;100.00;94041.19;5097150;28;20034;-84
2023/12/21 05:17:00;;;;;;;17.15;9.52;;;;;;;1.16;100.00;94039.44;5091175;28;20097;-84
2023/12/21 05:19:26;;;;;;;20.33;10.60;;;;;;;1.00;100.00;94035.63;5093639;28;20429;-84
2023/12/21 05:21:51;;;;;;;23.55;12.60;;;;;;;1.10;100.00;94035.91;5080219;28;20032;-84
2023/12/21 05:24:17;;;;;;;21.83;11.80;;;;;;;1.19;100.00;94028.69;5096874;28;20023;-84
2023/12/21 05:26:43;;;;;;;21.88;11.50;;;;;;;1.43;100.00;94028.00;5090343;28;20076;-84
2023/12/21 05:29:08;;;;;;;26.75;12.38;;;;;;;1.52;100.00;94032.63;5094697;28;20123;-84
2023/12/21 05:31:34;;;;;;;23.33;11.93;;;;;;;1.52;100.00;94029.28;5076335;28;20032;-84
2023/12/21 05:33:59;;;;;;;22.58;11.80;;;;;;;1.48;100.00;94022.97;5076726;28;20028;-84
2023/12/21 05:36:25;;;;;;;20.40;10.75;;;;;;;1.57;100.00;94026.03;5084161;28;20032;-84
2023/12/21 05:38:51;;;;;;;24.05;12.27;;;;;;;1.45;100.00;94020.81;5090737;28;20028;-84
2023/12/21 05:41:17;;;;;;;26.05;10.85;;;;;;;1.42;100.00;94022.03;5096228;28;20035;-84
2023/12/21 05:43:43;;;;;;;22.77;13.00;;;;;;;1.37;100.00;94020.13;5076082;28;20090;-84
2023/12/21 05:46:09;;;;;;;22.70;11.77;;;;;;;1.41;100.00;94020.47;5099535;28;20032;-84
2023/12/21 05:48:34;;;;;;;22.15;11.23;;;;;;;1.58;100.00;94022.44;5077580;28;20441;-84
2023/12/21 05:51:00;;;;;;;18.25;9.93;;;;;;;1.57;100.00;94016.50;5075825;28;20457;-84
2023/12/21 05:53:25;;;;;;;19.02;9.93;;;;;;;1.50;100.00;94015.78;5093675;28;20081;-84
2023/12/21 05:55:51;;;;;;;22.67;9.43;;;;;;;1.40;100.00;94027.44;5094964;28;20024;-84
2023/12/21 05:58:17;;;;;;;17.00;9.68;;;;;;;1.33;100.00;94024.13;5095539;28;20020;-83
2023/12/21 06:00:42;;;;;;;21.23;8.73;;;;;;;1.50;100.00;94028.69;5095976;28;20096;-83
2023/12/21 06:03:08;;;;;;;20.27;9.25;;;;;;;1.48;100.00;94025.53;5096791;28;20476;-83
2023/12/21 06:05:33;;;;;;;18.15;9.10;;;;;;;1.50;100.00;94019.16;5097142;28;20024;-83
2023/12/21 06:07:59;;;;;;;12.93;7.82;;;;;;;1.62;100.00;94015.84;5095479;28;20031;-83
2023/12/21 06:10:24;;;;;;;15.23;8.63;;;;;;;1.35;100.00;94022.13;5094629;28;20096;-84
2023/12/21 06:12:49;;;;;;;16.85;8.50;;;;;;;1.21;100.00;94010.38;5085272;28;20029;-83
2023/12/21 06:15:17;;;;;;;16.10;8.75;;;;;;;1.36;100.00;94010.00;5076788;28;20028;-84
2023/12/21 06:17:42;;;;;;;14.40;7.72;;;;;;;1.53;100.00;93997.28;5058395;28;20036;-83
2023/12/21 06:20:08;;;;;;;13.90;7.13;;;;;;;1.38;100.00;93995.88;5075721;28;20043;-83
2023/12/21 06:22:34;;;;;;;13.13;6.88;;;;;;;1.38;100.00;94000.25;5058840;28;20028;-83
2023/12/21 06:24:59;;;;;;;12.43;6.22;;;;;;;1.46;100.00;93996.56;5075622;28;20345;-83
2023/12/21 06:27:24;;;;;;;14.75;6.57;;;;;;;1.58;100.00;93996.59;5082419;28;20026;-82
2023/12/21 06:29:50;;;;;;;11.27;6.15;;;;;;;1.61;100.00;94001.34;5088439;28;20029;-82
2023/12/21 06:32:15;;;;;;;10.90;6.45;;;;;;;1.72;100.00;94002.38;5095603;28;20028;-83
2023/12/21 06:34:41;;;;;;;12.13;7.15;;;;;;;1.58;100.00;94000.00;5096752;28;20036;-83
2023/12/21 06:37:07;;;;;;;11.50;6.13;;;;;;;1.79;100.00;93997.91;5096142;28;20505;-83
2023/12/21 06:39:33;;;;;;;9.88;4.90;;;;;;;1.53;100.00;94010.97;5096760;28;20059;-82
2023/12/21 06:41:58;;;;;;;10.07;6.00;;;;;;;1.25;100.00;94017.47;5095345;28;20057;-83
2023/12/21 06:44:24;;;;;;;9.23;5.07;;;;;;;1.41;100.00;94020.47;5095606;28;20093;-83
2023/12/21 06:46:50;;;;;;;17.30;6.07;;;;;;;1.34;100.00;94020.53;5095857;28;20398;-83
2023/12/21 06:49:16;;;;;;;11.30;5.45;;;;;;;1.35;100.00;94034.25;5095502;28;20032;-83
2023/12/21 06:51:44;;;;;;;8.30;4.90;;;;;;;1.49;100.00;94038.25;5078796;28;20034;-82
2023/12/21 06:54:10;;;;;;;8.32;4.47;;;;;;;1.44;100.00;94037.31;5081348;28;20028;-83
2023/12/21 06:56:36;;;;;;;8.02;3.97;;;;;;;1.61;100.00;94035.69;5099550;28;20352;-82
2023/12/21 06:59:02;;;;;;;9.48;5.07;;;;;;;1.62;100.00;94036.50;5082050;28;20047;-83
2023/12/21 07:01:27;;;;;;;7.25;4.18;;;;;;;1.76;100.00;94021.59;5099573;28;20032;-83
2023/12/21 07:03:53;;;;;;;8.57;3.65;;;;;;;1.85;100.00;94028.03;5099332;28;20028;-82
2023/12/21 07:06:19;;;;;;;13.02;3.65;;;;;;;1.82;100.00;94026.66;5099521;28;20058;-83
2023/12/21 07:08:44;;;;;;;9.40;3.92;;;;;;;1.84;100.00;94034.97;5098986;28;20100;-82
2023/12/21 07:11:10;;;;;;;6.03;3.50;;;;;;;2.02;100.00;94046.28;5100614;28;20539;-82
2023/12/21 07:13:35;;;;;;;8.38;3.30;;;;;;;2.23;100.00;94047.56;5100507;28;20085;-82
2023/12/21 07:16:02;;;;;;;7.70;3.20;;;;;;;2.31;100.00;94054.22;5100479;28;20028;-82
2023/12/21 07:18:27;;;;;;;5.90;3.03;;;;;;;2.47;100.00;94065.69;5098762;28;20020;-82
2023/12/21 07:20:53;;;;;;;8.93;3.65;;;;;;;2.60;100.00;94071.66;5099126;28;20036;-82
2023/12/21 07:23:18;;;;;;;6.90;3.25;;;;;;;2.64;100.00;94078.75;5099397;28;20031;-82
2023/12/21 07:25:44;;;;;;;7.63;2.65;;;;;;;2.55;100.00;94077.50;5100301;28;20097;-82
2023/12/21 07:28:09;;;;;;;5.03;2.90;;;;;;;2.72;100.00;94085.38;5099873;28;20024;-82
2023/12/21 07:30:35;;;;;;;5.45;2.78;;;;;;;2.87;100.00;94079.78;5100219;28;20028;-82
2023/12/21 07:33:00;;;;;;;7.13;2.88;;;;;;;2.85;100.00;94079.19;5099141;28;20024;-82
2023/12/21 07:35:25;;;;;;;4.40;2.55;;;;;;;3.01;100.00;94082.09;5098987;28;20115;-82
2023/12/21 07:37:51;;;;;;;5.68;2.83;;;;;;;3.05;100.00;94081.44;5098440;28;20027;-82
2023/12/21 07:40:16;;;;;;;7.22;2.30;;;;;;;3.19;100.00;94088.97;5098781;28;20035;-82
2023/12/21 07:42:42;;;;;;;4.82;2.42;;;;;;;3.27;100.00;94087.81;5098813;28;20028;-82
2023/12/21 07:45:07;;;;;;;5.43;2.22;;;;;;;3.34;100.00;94088.50;5098681;28;20036;-82
2023/12/21 07:47:33;;;;;;;3.83;1.73;;;;;;;3.31;100.00;94081.97;5098413;28;20496;-82
2023/12/21 07:49:58;;;;;;;4.90;2.78;;;;;;;3.37;100.00;94070.72;5098523;28;20032;-82
2023/12/21 07:52:24;;;;;;;5.55;2.40;;;;;;;3.35;100.00;94074.53;5098646;28;20028;-82
2023/12/21 07:54:50;;;;;;;5.07;2.80;;;;;;;3.65;100.00;94070.97;5099701;28;20024;-82
2023/12/21 07:57:15;;;;;;;6.40;3.35;;;;;;;3.74;100.00;94069.59;5098004;28;20028;-82
2023/12/21 07:59:41;;;;;;;5.70;2.67;;;;;;;3.80;100.00;94068.66;5098525;28;20085;-82
2023/12/21 08:02:06;;;;;;;6.15;2.92;;;;;;;3.80;100.00;94063.47;5098604;28;20030;-82
2023/12/21 08:04:32;;;;;;;6.10;2.90;;;;;;;3.88;100.00;94070.06;5097873;28;20408;-82
2023/12/21 08:06:58;;;;;;;8.20;3.20;;;;;;;3.92;100.00;94055.63;5098727;28;20026;-82
2023/12/21 08:09:24;;;;;;;9.07;3.75;;;;;;;4.00;100.00;94053.69;5098309;28;20106;-82
2023/12/21 08:11:51;;;;;;;6.80;3.58;;;;;;;3.94;100.00;94045.03;5098229;28;20387;-82
2023/12/21 08:14:16;;;;;;;5.18;3.13;;;;;;;3.92;100.00;94042.66;5098431;28;20030;-82
2023/12/21 08:16:41;;;;;;;5.50;3.15;;;;;;;3.92;100.00;94028.94;5097556;28;20106;-83
2023/12/21 08:19:07;;;;;;;6.97;3.40;;;;;;;3.90;100.00;94041.34;5097958;28;20093;-82
2023/12/21 08:21:32;;;;;;;9.88;3.53;;;;;;;3.87;100.00;94037.41;5099186;28;20032;-83
2023/12/21 08:23:58;;;;;;;5.90;3.30;;;;;;;4.04;100.00;94042.63;5098042;28;20082;-82
2023/12/21 08:26:23;;;;;;;8.30;3.72;;;;;;;3.90;100.00;94041.34;5099176;28;20035;-83
2023/12/21 08:28:49;;;;;;;7.93;4.15;;;;;;;4.07;100.00;94039.56;5097466;28;20024;-82
2023/12/21 08:31:28;;;;;;;7.55;4.28;;;;;;;4.31;100.00;94036.03;5097807;28;20031;-82
2023/12/21 08:33:54;;;;;;;7.07;3.83;;;;;;;4.37;100.00;94029.91;5081155;28;20330;-82
2023/12/21 08:36:19;;;;;;;6.85;3.72;;;;;;;4.36;100.00;94026.53;5081089;28;20032;-82
2023/12/21 08:38:45;;;;;;;9.57;4.40;;;;;;;4.50;100.00;94021.78;5080552;28;20028;-82
2023/12/21 08:41:10;;;;;;;5.55;3.58;;;;;;;4.58;100.00;94018.00;5097674;28;20400;-82
2023/12/21 08:43:36;;;;;;;8.68;4.00;;;;;;;4.61;100.00;94016.75;5097799;28;20085;-83
2023/12/21 08:46:02;;;;;;;7.97;4.03;;;;;;;4.70;100.00;94012.75;5080935;28;20066;-82
2023/12/21 08:48:28;;;;;;;9.07;4.35;;;;;;;4.71;100.00;94005.72;5098168;28;20028;-82
2023/12/21 08:50:53;;;;;;;7.60;3.67;;;;;;;4.86;100.00;94012.94;5097553;28;20039;-83
2023/12/21 08:53:19;;;;;;;7.40;3.78;;;;;;;4.99;100.00;94015.22;5097390;28;20437;-82
2023/12/21 08:55:45;;;;;;;7.93;4.10;;;;;;;5.03;100.00;94010.31;5097453;28;20063;-83
2023/12/21 08:58:11;;;;;;;11.13;5.00;;;;;;;5.05;100.00;94006.44;5080278;28;20020;-82
2023/12/21 09:00:36;;;;;;;10.20;4.43;;;;;;;5.14;100.00;94006.81;5097255;28;20039;-82
2023/12/21 09:03:02;;;;;;;8.57;4.00;;;;;;;5.20;100.00;94011.06;5097324;28;20024;-82
2023/12/21 09:05:28;;;;;;;6.43;3.65;;;;;;;5.30;100.00;94010.38;5080523;28;20024;-82
2023/12/21 09:07:54;;;;;;;7.60;3.70;;;;;;;5.34;100.00;94014.06;5079976;28;20016;-82
2023/12/21 09:10:19;;;;;;;5.22;3.33;;;;;;;5.46;100.00;94018.34;5098366;28;20028;-82
2023/12/21 09:12:45;;;;;;;8.52;3.60;;;;;;;5.58;100.00;94015.59;5097019;28;20028;-82
2023/12/21 09:15:10;;;;;;;7.13;3.80;;;;;;;5.66;100.00;94009.97;5098123;28;20028;-82
2023/12/21 09:17:36;;;;;;;8.00;4.30;;;;;;;5.65;100.00;94003.22;5078484;28;20059;-82
2023/12/21 09:20:02;;;;;;;8.60;4.65;;;;;;;5.69;100.00;93995.72;5096964;28;20084;-82
2023/12/21 09:22:28;;;;;;;7.38;3.63;;;;;;;5.80;100.00;93997.38;5096935;28;20066;-83
2023/12/21 09:24:54;;;;;;;5.97;3.40;;;;;;;5.90;100.00;94001.91;5096820;28;20507;-82
2023/12/21 09:27:19;;;;;;;5.90;3.80;;;;;;;5.91;100.00;93993.06;5097528;28;20072;-82
2023/12/21 09:29:45;;;;;;;7.65;3.40;;;;;;;5.97;100.00;93989.47;5096733;28;20420;-82
2023/12/21 09:32:10;;;;;;;8.02;3.53;;;;;;;6.10;100.00;93982.31;5096692;28;20417;-83
2023/12/21 09:34:36;;;;;;;5.10;3.33;;;;;;;6.34;100.00;93980.16;5079951;28;20028;-82
2023/12/21 09:37:05;;;;;;;12.15;4.40;;;;;;;6.42;100.00;93973.69;5097243;28;20031;-83
2023/12/21 09:39:31;;;;;;;6.20;3.38;;;;;;;6.56;100.00;93966.25;5096622;28;20112;-83
2023/12/21 09:42:00;;;;;;;4.93;3.22;;;;;;;6.80;100.00;93961.44;5096446;28;20024;-82
2023/12/21 09:44:27;;;;;;;4.40;2.78;;;;;;;6.97;100.00;93963.06;5097614;28;20030;-82
2023/12/21 09:46:54;;;;;;;5.13;3.30;;;;;;;7.06;100.00;93958.94;5096980;28;20039;-83
2023/12/21 09:49:20;;;;;;;8.20;3.55;;;;;;;7.08;100.00;93955.03;5096395;28;20429;-82
2023/12/21 09:51:45;;;;;;;5.60;3.50;;;;;;;6.98;100.00;93962.03;5097495;28;20024;-82
2023/12/21 09:54:13;;;;;;;6.32;3.83;;;;;;;7.02;100.00;93953.47;5096309;28;20371;-82
2023/12/21 09:56:39;;;;;;;7.18;3.80;;;;;;;7.06;100.00;93951.13;5079564;28;20066;-82
2023/12/21 09:59:05;;;;;;;7.35;3.42;;;;;;;7.02;100.00;93939.63;5095773;28;20090;-82
2023/12/21 10:01:30;;;;;;;6.20;3.58;;;;;;;6.99;100.00;93934.94;5096173;28;20036;-83
2023/12/21 10:03:57;;;;;;;5.28;2.78;;;;;;;7.15;100.00;93930.59;5095998;28;20417;-82
2023/12/21 10:06:23;;;;;;;5.30;3.08;;;;;;;7.19;100.00;93921.19;5096190;28;20326;-83
2023/12/21 10:08:49;;;;;;;5.30;3.20;;;;;;;7.31;100.00;93911.34;5096756;28;20020;-83
2023/12/21 10:11:14;;;;;;;6.10;3.30;;;;;;;7.56;100.00;93901.22;5095980;28;20035;-82
2023/12/21 10:13:46;;;;;;;5.03;3.10;;;;;;;7.74;100.00;93905.91;5095891;28;20028;-83
2023/12/21 10:16:12;;;;;;;4.63;2.70;;;;;;;7.89;100.00;93907.75;5097171;28;20350;-83
2023/12/21 10:18:37;;;;;;;6.28;2.55;;;;;;;7.91;100.00;93899.69;5096365;28;20028;-83
2023/12/21 10:21:03;;;;;;;5.15;2.78;;;;;;;8.01;100.00;93897.03;5096999;28;20430;-83
2023/12/21 10:23:28;;;;;;;5.93;2.75;;;;;;;8.07;100.00;93890.00;5079005;28;20479;-82
2023/12/21 10:25:54;;;;;;;4.38;2.55;;;;;;;8.29;100.00;93884.47;5096877;28;20445;-83
2023/12/21 10:28:23;;;;;;;5.53;3.15;;;;;;;8.28;100.00;93882.91;5078394;28;20024;-82
2023/12/21 10:30:57;;;;;;;5.03;2.67;;;;;;;8.43;100.00;93868.28;5095700;28;20039;-83
2023/12/21 10:33:25;;;;;;;4.25;2.45;;;;;;;8.53;100.00;93863.06;5095679;28;20115;-82
2023/12/21 10:35:51;;;;;;;5.45;2.60;;;;;;;8.73;100.00;93856.97;5095705;28;20047;-83
2023/12/21 10:38:17;;;;;;;5.45;2.50;;;;;;;9.01;100.00;93852.16;5095037;28;20419;-82
2023/12/21 10:40:45;;;;;;;4.63;2.30;;;;;;;9.18;100.00;93851.00;5095730;28;20139;-82
2023/12/21 10:43:10;;;;;;;3.65;2.22;;;;;;;9.30;100.00;93855.91;5095597;28;20101;-82
2023/12/21 10:45:36;;;;;;;5.25;2.70;;;;;;;9.41;100.00;93844.31;5095647;28;20024;-83
2023/12/21 10:48:06;;;;;;;3.85;2.35;;;;;;;9.60;100.00;93849.69;5095320;28;20063;-83
2023/12/21 10:50:33;;;;;;;3.83;2.10;;;;;;;9.68;100.00;93845.69;5095850;28;20075;-82
2023/12/21 10:52:59;;;;;;;2.95;1.75;;;;;;;9.76;100.00;93842.50;5095396;28;20028;-83
2023/12/21 10:55:25;;;;;;;5.75;2.20;;;;;;;9.76;100.00;93834.66;5095479;28;20055;-83
2023/12/21 10:57:51;;;;;;;4.97;2.40;;;;;;;9.87;100.00;93837.16;5094999;28;20392;-83
2023/12/21 11:00:17;;;;;;;4.13;2.50;;;;;;;9.91;100.00;93840.81;5078810;28;20032;-83
2023/12/21 11:02:46;;;;;;;4.10;2.15;;;;;;;9.96;100.00;93838.13;5095343;28;20036;-82
2023/12/21 11:05:22;;;;;;;3.20;2.03;;;;;;;10.12;100.00;93835.38;5096578;28;20111;-83
2023/12/21 11:07:51;;;;;;;4.07;2.08;;;;;;;10.27;100.00;93832.59;5096172;28;20065;-83
2023/12/21 11:10:18;;;;;;;6.20;2.22;;;;;;;10.42;100.00;93828.28;5095362;28;20077;-83
2023/12/21 11:12:43;;;;;;;4.65;1.92;;;;;;;10.65;99.21;93820.72;5095297;28;20024;-83
2023/12/21 11:15:10;;;;;;;4.00;2.05;;;;;;;10.82;97.22;93830.69;5095281;28;20024;-83
2023/12/21 11:17:36;;;;;;;3.53;1.80;;;;;;;10.98;98.94;93812.94;5094823;28;20078;-83
2023/12/21 11:20:02;;;;;;;3.90;1.90;;;;;;;11.12;89.39;93810.41;5078569;28;20024;-82